»·PEaware :: N4349X L88-KSBP

N4349X :: L88-KSBP

FLIGHT INFORMATION

Flight Status: Arrived
Operator: Privately registered:
United States
More flights under this callsign
Pilot: Robert F. (20392)
Aircraft: CESSNA 172 SKYHAWK
(C172)
More flights by this aircraft type
Origin: L88 New Cuyama
United States
Destination: KSBP San Luis Co Regl
United States
More flights between these airports :: More routes between these airports
Route: VFR
File this flight plan on PilotEdge
Remarks:
Altitude:
(Current/Filed)
0ft
Speed:
(Current/Filed)
0kts
Departed: 09-Sep-18 06:13 PM
Arrived: 09-Sep-18 06:47 PM
Distance/Time
Traveled:
50nm/0:34
Distance/Time
To Go:
Arrived

Flight Plot

Page will automatically refresh every two minutes.


Map Options




Map Legend


Flown Route
Filed Route
Departure Airport
Arrival Airport
Navaid (VOR, NDB)
Fix

Horizontal Profiles

Position Reports

Time Latitude Longitude Heading Altitude Ground
Speed
09-Sep-18 18:06 34.937652 -119.679968 296 2200ft 0kts
09-Sep-18 18:07 34.937652 -119.679968 296 2200ft 0kts
09-Sep-18 18:08 34.937652 -119.679968 296 2200ft 0kts
09-Sep-18 18:09 34.937652 -119.679968 296 2200ft 0kts
09-Sep-18 18:10 34.937652 -119.679968 296 2200ft 0kts
09-Sep-18 18:11 34.937652 -119.679968 296 2200ft 0kts
09-Sep-18 18:12 34.937652 -119.679968 296 2200ft 0kts
09-Sep-18 18:13 34.937652 -119.679968 296 2200ft 0kts
09-Sep-18 18:14 34.937652 -119.679968 296 2200ft 0kts
09-Sep-18 18:15 34.942024 -119.690085 299 2464ft 79kts
09-Sep-18 18:16 34.953022 -119.712568 290 3505ft 77kts
09-Sep-18 18:17 34.954887 -119.718095 291 3710ft 80kts
09-Sep-18 18:18 34.954887 -119.718095 291 3710ft 80kts
09-Sep-18 18:19 34.957816 -119.726750 290 4057ft 79kts
09-Sep-18 18:20 34.965215 -119.753023 295 4954ft 83kts
09-Sep-18 18:21 34.973660 -119.779801 292 5804ft 86kts
09-Sep-18 18:22 34.982270 -119.806755 286 6593ft 88kts
09-Sep-18 18:23 34.995478 -119.829233 291 7278ft 91kts
09-Sep-18 18:24 35.003681 -119.856889 288 7717ft 110kts
09-Sep-18 18:25 35.014760 -119.887637 298 7821ft 123kts
09-Sep-18 18:26 35.025972 -119.919895 292 7923ft 123kts
09-Sep-18 18:27 35.036207 -119.952985 292 8024ft 123kts
09-Sep-18 18:28 35.047442 -119.985510 287 8118ft 123kts
09-Sep-18 18:29 35.058605 -120.017471 293 8213ft 122kts
09-Sep-18 18:30 35.068746 -120.050292 287 8294ft 123kts
09-Sep-18 18:31 35.075651 -120.084797 278 8379ft 123kts
09-Sep-18 18:32 35.084051 -120.118240 291 8458ft 122kts
09-Sep-18 18:33 35.092716 -120.151641 284 8511ft 124kts
09-Sep-18 18:34 35.103427 -120.182616 299 8575ft 123kts
09-Sep-18 18:35 35.115108 -120.214325 286 8641ft 123kts
09-Sep-18 18:36 35.124799 -120.246892 296 8703ft 122kts
09-Sep-18 18:37 35.136668 -120.277628 293 8749ft 124kts
09-Sep-18 18:38 35.146690 -120.308838 288 8800ft 124kts
09-Sep-18 18:39 35.155317 -120.340904 292 8849ft 124kts
09-Sep-18 18:40 35.167442 -120.371471 294 8894ft 124kts
09-Sep-18 18:41 35.176456 -120.404777 285 8934ft 124kts
09-Sep-18 18:42 35.183387 -120.439252 281 8974ft 124kts
09-Sep-18 18:43 35.187916 -120.475805 276 9014ft 123kts
09-Sep-18 18:44 35.190509 -120.513295 275 8972ft 114kts
09-Sep-18 18:45 35.196801 -120.546530 296 6926ft 141kts
09-Sep-18 18:46 35.211462 -120.584389 296 3394ft 166kts
09-Sep-18 18:47 35.224656 -120.618508 297 1070ft 94kts
09-Sep-18 18:48 35.233170 -120.633747 305 218ft 60kts
09-Sep-18 18:49 35.237146 -120.640592 302 189ft 16kts
09-Sep-18 18:50 35.237620 -120.643283 247 181ft 0kts
09-Sep-18 18:51 35.237489 -120.644121 93 178ft 0kts
09-Sep-18 18:52 35.237489 -120.644121 93 178ft 0kts
09-Sep-18 18:53 35.237489 -120.644121 93 178ft 0kts
09-Sep-18 18:54 35.237489 -120.644121 93 178ft 0kts
09-Sep-18 18:55 35.237489 -120.644121 93 178ft 0kts
09-Sep-18 18:56 35.237489 -120.644121 93 178ft 0kts
09-Sep-18 18:57 35.237489 -120.644121 93 178ft 0kts
09-Sep-18 18:58 35.237489 -120.644121 93 178ft 0kts
09-Sep-18 18:59 35.237489 -120.644121 93 178ft 0kts
09-Sep-18 19:00 35.237489 -120.644121 93 178ft 0kts
09-Sep-18 19:01 35.237489 -120.644121 93 178ft 0kts
09-Sep-18 19:02 35.237489 -120.644121 93 178ft 0kts
09-Sep-18 19:03 35.237489 -120.644121 93 178ft 0kts

Navigation Log

Ident Type
1. L88 Airport
2. KSBP Airport